createdAt,value
2022-10-14T00:01:17.461Z,101043.39
2022-10-14T00:04:06.024Z,101042.96
2022-10-14T00:06:34.250Z,101039.37
2022-10-14T00:09:06.038Z,101038.03
2022-10-14T00:11:34.437Z,101038.52
2022-10-14T00:14:10.650Z,101037.04
2022-10-14T00:16:40.085Z,101040.34
2022-10-14T00:19:10.836Z,101037.90
2022-10-14T00:21:39.552Z,101035.95
2022-10-14T00:24:11.266Z,101036.39
2022-10-14T00:26:40.049Z,101032.57
2022-10-14T00:29:09.974Z,101032.13
2022-10-14T00:31:37.660Z,101030.67
2022-10-14T00:34:05.304Z,101027.84
2022-10-14T00:36:34.326Z,101027.38
2022-10-14T00:39:01.987Z,101024.65
2022-10-14T00:41:31.746Z,101028.24
2022-10-14T00:43:59.440Z,101023.02
2022-10-14T00:46:28.922Z,101026.39
2022-10-14T00:49:01.808Z,101021.16
2022-10-14T00:51:29.573Z,101016.92
2022-10-14T00:53:57.417Z,101014.77
2022-10-14T00:56:27.352Z,101018.55
2022-10-14T00:58:55.615Z,101023.61
2022-10-14T01:01:23.588Z,101021.80
2022-10-14T01:03:51.284Z,101027.57
2022-10-14T01:06:24.801Z,101023.81
2022-10-14T01:09:00.216Z,101022.65
2022-10-14T01:11:38.278Z,101017.62
2022-10-14T01:14:15.110Z,101019.86
2022-10-14T01:16:57.713Z,101017.33
2022-10-14T01:19:37.676Z,101012.75
2022-10-14T01:22:18.707Z,101011.34
2022-10-14T01:25:02.029Z,101006.04
2022-10-14T01:27:49.613Z,101005.25
2022-10-14T01:30:17.616Z,101004.35
2022-10-14T01:32:45.352Z,101006.50
2022-10-14T01:35:31.493Z,101005.76
2022-10-14T01:38:02.242Z,101003.85
2022-10-14T01:40:35.951Z,101008.23
2022-10-14T01:43:04.625Z,100999.23
2022-10-14T01:45:34.475Z,100997.32
2022-10-14T01:48:03.541Z,100994.67
2022-10-14T01:50:31.930Z,100993.98
2022-10-14T01:53:03.516Z,100988.27
2022-10-14T01:55:34.129Z,100988.36
2022-10-14T01:58:02.621Z,100987.70
2022-10-14T02:00:30.524Z,100986.92
2022-10-14T02:03:08.525Z,100990.15
2022-10-14T02:05:44.434Z,100987.89
2022-10-14T02:08:18.429Z,100993.21
2022-10-14T02:11:01.714Z,100990.20
2022-10-14T02:13:48.892Z,100991.19
2022-10-14T02:16:27.141Z,100993.39
2022-10-14T02:19:01.190Z,100992.55
2022-10-14T02:21:48.125Z,100990.29
2022-10-14T02:24:20.480Z,100992.61
2022-10-14T02:26:49.702Z,100985.70
2022-10-14T02:29:22.234Z,100978.64
2022-10-14T02:31:54.848Z,100976.91
2022-10-14T02:34:24.250Z,100986.74
2022-10-14T02:36:53.529Z,100980.41
2022-10-14T02:39:27.317Z,100971.39
2022-10-14T02:41:55.062Z,100967.66
2022-10-14T02:44:22.970Z,100968.51
2022-10-14T02:46:50.729Z,100968.36
2022-10-14T02:49:18.522Z,100968.34
2022-10-14T02:51:46.221Z,100963.12
2022-10-14T02:54:13.934Z,100959.64
2022-10-14T02:56:42.627Z,100962.95
2022-10-14T02:59:10.300Z,100966.66
2022-10-14T03:01:39.120Z,100967.17
2022-10-14T03:04:07.797Z,100968.38
2022-10-14T03:06:37.136Z,100970.91
2022-10-14T03:09:05.159Z,100972.70
2022-10-14T03:11:35.106Z,100971.69
2022-10-14T03:14:05.514Z,100961.37
2022-10-14T03:16:33.355Z,100964.27
2022-10-14T03:19:01.239Z,100963.54
2022-10-14T03:21:41.457Z,100965.05
2022-10-14T03:24:13.981Z,100960.23
2022-10-14T03:26:42.312Z,100965.05
2022-10-14T03:29:10.030Z,100962.88
2022-10-14T03:32:00.662Z,100970.23
2022-10-14T03:34:32.919Z,100971.52
2022-10-14T03:37:05.956Z,100968.51
2022-10-14T03:39:35.206Z,100972.86
2022-10-14T03:42:05.738Z,100972.09
2022-10-14T03:44:40.280Z,100971.32
2022-10-14T03:47:17.464Z,100968.16
2022-10-14T03:49:45.533Z,100969.39
2022-10-14T03:52:19.988Z,100975.56
2022-10-14T03:54:56.508Z,100977.98
2022-10-14T03:57:24.852Z,100981.70
2022-10-14T03:59:54.904Z,100979.73
2022-10-14T04:02:24.054Z,100979.52
2022-10-14T04:05:00.638Z,100977.64
2022-10-14T04:07:29.290Z,100976.53
2022-10-14T04:09:58.260Z,100976.45
2022-10-14T04:12:26.429Z,100976.98
2022-10-14T04:15:00.538Z,100972.06
2022-10-14T04:17:33.184Z,100971.23
2022-10-14T04:20:03.846Z,100969.20
2022-10-14T04:22:33.345Z,100966.33
2022-10-14T04:25:01.380Z,100960.57
2022-10-14T04:27:29.151Z,100957.95
2022-10-14T04:30:03.976Z,100950.19
2022-10-14T04:32:39.958Z,100952.54
2022-10-14T04:35:09.666Z,100948.91
2022-10-14T04:37:38.343Z,100946.39
2022-10-14T04:40:20.634Z,100949.36
2022-10-14T04:42:48.467Z,100946.91
2022-10-14T04:45:21.248Z,100947.08
2022-10-14T04:47:54.679Z,100946.11
2022-10-14T04:50:24.146Z,100947.73
2022-10-14T04:53:13.538Z,100942.96
2022-10-14T04:55:53.060Z,100948.49
2022-10-14T04:58:20.766Z,100947.98
2022-10-14T05:00:48.866Z,100947.45
2022-10-14T05:03:35.599Z,100946.89
2022-10-14T05:06:03.635Z,100945.27
2022-10-14T05:08:31.297Z,100942.91
2022-10-14T05:11:01.089Z,100949.02
2022-10-14T05:13:37.261Z,100949.85
2022-10-14T05:16:08.641Z,100952.91
2022-10-14T05:18:36.508Z,100954.09
2022-10-14T05:21:09.005Z,100949.39
2022-10-14T05:23:51.960Z,100945.89
2022-10-14T05:26:19.685Z,100941.80
2022-10-14T05:28:48.117Z,100938.80
2022-10-14T05:31:17.214Z,100939.66
2022-10-14T05:33:51.059Z,100934.38
2022-10-14T05:36:19.033Z,100934.05
2022-10-14T05:38:48.727Z,100936.48
2022-10-14T05:41:19.546Z,100930.95
2022-10-14T05:43:47.336Z,100931.06
2022-10-14T05:46:15.073Z,100930.11
2022-10-14T05:48:46.140Z,100924.13
2022-10-14T05:51:15.556Z,100933.29
2022-10-14T05:53:43.693Z,100935.17
2022-10-14T05:56:15.391Z,100939.80
2022-10-14T05:58:43.003Z,100945.10
2022-10-14T06:01:11.107Z,100946.30
2022-10-14T06:03:41.253Z,100944.27
2022-10-14T06:06:14.319Z,100943.41
2022-10-14T06:08:42.488Z,100944.13
2022-10-14T06:11:11.024Z,100940.47
2022-10-14T06:13:39.344Z,100940.82
2022-10-14T06:16:09.148Z,100942.57
2022-10-14T06:18:37.158Z,100942.93
2022-10-14T06:21:05.824Z,100938.19
2022-10-14T06:23:35.285Z,100935.83
2022-10-14T06:26:09.159Z,100939.02
2022-10-14T06:28:37.445Z,100939.14
2022-10-14T06:31:06.602Z,100941.20
2022-10-14T06:33:34.550Z,100939.52
2022-10-14T06:36:03.082Z,100939.32
2022-10-14T06:38:31.542Z,100942.89
2022-10-14T06:40:59.268Z,100944.25
2022-10-14T06:43:28.202Z,100943.30
2022-10-14T06:45:59.650Z,100941.31
2022-10-14T06:48:27.294Z,100945.27
2022-10-14T06:50:55.031Z,100951.32
2022-10-14T06:53:22.646Z,100952.65
2022-10-14T06:55:56.722Z,100956.88
2022-10-14T06:58:24.445Z,100954.61
2022-10-14T07:00:52.138Z,100955.26
2022-10-14T07:03:19.885Z,100957.55
2022-10-14T07:05:47.738Z,100959.06
2022-10-14T07:08:15.805Z,100962.88
2022-10-14T07:10:43.649Z,100961.02
2022-10-14T07:13:11.345Z,100956.91
2022-10-14T07:15:39.105Z,100956.23
2022-10-14T07:18:07.129Z,100957.55
2022-10-14T07:20:35.128Z,100953.79
2022-10-14T07:23:02.790Z,100956.11
2022-10-14T07:25:30.426Z,100957.03
2022-10-14T07:27:58.138Z,100960.75
2022-10-14T07:30:26.155Z,100959.81
2022-10-14T07:32:53.953Z,100956.59
2022-10-14T07:35:21.717Z,100957.42
2022-10-14T07:37:50.780Z,100952.02
2022-10-14T07:40:18.600Z,100953.62
2022-10-14T07:42:46.947Z,100951.95
2022-10-14T07:45:16.649Z,100956.94
2022-10-14T07:47:45.208Z,100953.83
2022-10-14T07:50:13.008Z,100949.10
2022-10-14T07:52:40.954Z,100951.12
2022-10-14T07:55:08.690Z,100948.67
2022-10-14T07:57:36.334Z,100954.73
2022-10-14T08:00:04.481Z,100959.27
2022-10-14T08:02:39.786Z,100958.95
2022-10-14T08:05:32.985Z,100952.77
2022-10-14T08:07:55.354Z,100954.63
2022-10-14T08:10:23.039Z,100958.67
2022-10-14T08:12:52.050Z,100958.09
2022-10-14T08:15:19.757Z,100959.14
2022-10-14T08:17:47.726Z,100959.73
2022-10-14T08:20:15.406Z,100956.30
2022-10-14T08:22:43.033Z,100958.75
2022-10-14T08:25:10.725Z,100955.09
2022-10-14T08:27:38.592Z,100959.79
2022-10-14T08:30:10.267Z,100960.77
2022-10-14T08:32:39.031Z,100959.93
2022-10-14T08:35:07.264Z,100956.09
2022-10-14T08:37:34.939Z,100958.44
2022-10-14T08:40:02.702Z,100956.45
2022-10-14T08:42:33.463Z,100955.52
2022-10-14T08:45:10.352Z,100955.93
2022-10-14T08:47:44.274Z,100952.66
2022-10-14T08:50:17.907Z,100949.44
2022-10-14T08:52:50.122Z,100945.40
2022-10-14T08:55:30.340Z,100947.85
2022-10-14T08:58:01.074Z,100946.96
2022-10-14T09:00:31.304Z,100946.68
2022-10-14T09:02:59.863Z,100947.38
2022-10-14T09:05:27.627Z,100950.09
2022-10-14T09:07:56.764Z,100951.45
2022-10-14T09:10:31.848Z,100949.66
2022-10-14T09:13:04.245Z,100950.00
2022-10-14T09:15:35.193Z,100949.72
2022-10-14T09:18:06.024Z,100949.48
2022-10-14T09:20:34.053Z,100953.20
2022-10-14T09:23:05.099Z,100952.50
2022-10-14T09:25:34.022Z,100953.37
2022-10-14T09:28:02.022Z,100951.06
2022-10-14T09:30:33.619Z,100948.98
2022-10-14T09:33:01.405Z,100952.11
2022-10-14T09:35:35.145Z,100945.08
2022-10-14T09:38:02.937Z,100945.23
2022-10-14T09:40:32.446Z,100946.59
2022-10-14T09:43:09.581Z,100945.19
2022-10-14T09:45:46.590Z,100942.48
2022-10-14T09:48:17.215Z,100938.20
2022-10-14T09:50:55.713Z,100939.76
2022-10-14T09:53:34.452Z,100941.30
2022-10-14T09:56:06.219Z,100942.23
2022-10-14T09:58:42.564Z,100942.17
2022-10-14T10:01:34.473Z,100940.54
2022-10-14T10:04:22.114Z,100936.85
2022-10-14T10:06:53.835Z,100933.91
2022-10-14T10:09:22.050Z,100935.13
2022-10-14T10:11:49.727Z,100936.54
2022-10-14T10:14:23.201Z,100937.32
2022-10-14T10:16:52.610Z,100936.48
2022-10-14T10:19:31.364Z,100936.49
2022-10-14T10:24:52.559Z,100930.05
2022-10-14T10:27:21.766Z,100929.63
2022-10-14T10:29:49.725Z,100925.59
2022-10-14T10:32:24.791Z,100927.79
2022-10-14T10:34:56.669Z,100925.74
2022-10-14T10:37:41.936Z,100924.95
2022-10-14T10:40:09.699Z,100923.02
2022-10-14T10:42:39.834Z,100918.44
2022-10-14T10:45:16.315Z,100918.52
2022-10-14T10:47:50.838Z,100921.45
2022-10-14T10:50:18.506Z,100921.64
2022-10-14T10:52:52.176Z,100919.39
2022-10-14T10:55:19.864Z,100914.98
2022-10-14T10:57:59.082Z,100911.79
2022-10-14T11:00:27.176Z,100910.57
2022-10-14T11:02:59.324Z,100911.98
2022-10-14T11:05:50.695Z,100909.17
2022-10-14T11:08:40.156Z,100907.14
2022-10-14T11:11:35.402Z,100902.80
2022-10-14T11:14:21.812Z,100895.75
2022-10-14T11:17:03.203Z,100892.39
2022-10-14T11:19:40.056Z,100893.03
2022-10-14T11:22:19.420Z,100887.52
2022-10-14T11:25:03.331Z,100885.38
2022-10-14T11:27:50.278Z,100880.08
2022-10-14T11:30:17.997Z,100878.98
2022-10-14T11:33:08.759Z,100881.54
2022-10-14T11:35:59.427Z,100879.78
2022-10-14T11:38:39.160Z,100878.66
2022-10-14T11:41:12.792Z,100882.59
2022-10-14T11:43:52.458Z,100877.90
2022-10-14T11:46:21.474Z,100874.17
2022-10-14T11:48:52.757Z,100874.49
2022-10-14T11:51:23.228Z,100873.06
2022-10-14T11:53:56.981Z,100870.50
2022-10-14T11:56:30.582Z,100869.00
2022-10-14T11:59:01.305Z,100867.47
2022-10-14T12:01:34.211Z,100868.14
2022-10-14T12:04:11.934Z,100871.95
2022-10-14T12:06:52.011Z,100869.39
2022-10-14T12:09:19.635Z,100868.50
2022-10-14T12:11:51.445Z,100868.08
2022-10-14T12:14:21.517Z,100862.79
2022-10-14T12:16:49.912Z,100863.98
2022-10-14T12:19:22.567Z,100863.91
2022-10-14T12:21:52.682Z,100855.16
2022-10-14T12:24:27.402Z,100852.34
2022-10-14T12:27:00.906Z,100853.92
2022-10-14T12:29:31.641Z,100850.88
2022-10-14T12:32:05.455Z,100851.90
2022-10-14T12:34:38.545Z,100851.84
2022-10-14T12:37:28.829Z,100852.05
2022-10-14T12:40:02.392Z,100844.61
2022-10-14T12:42:32.247Z,100845.45
2022-10-14T12:45:01.802Z,100847.09
2022-10-14T12:47:37.543Z,100847.48
2022-10-14T12:50:26.032Z,100845.48
2022-10-14T12:52:59.245Z,100842.84
2022-10-14T12:55:30.190Z,100843.10
2022-10-14T12:58:02.661Z,100841.10
2022-10-14T13:00:38.861Z,100843.86
2022-10-14T13:03:17.817Z,100843.21
2022-10-14T13:05:45.986Z,100843.21
2022-10-14T13:08:16.646Z,100839.53
2022-10-14T13:10:47.138Z,100836.91
2022-10-14T13:13:34.494Z,100835.45
2022-10-14T13:16:02.176Z,100834.27
2022-10-14T13:18:32.913Z,100829.27
2022-10-14T13:21:00.639Z,100819.98
2022-10-14T13:23:31.950Z,100818.27
2022-10-14T13:26:08.903Z,100815.47
2022-10-14T13:28:45.008Z,100814.80
2022-10-14T13:31:16.316Z,100811.91
2022-10-14T13:33:47.762Z,100810.48
2022-10-14T13:36:19.027Z,100812.21
2022-10-14T13:38:51.887Z,100811.41
2022-10-14T13:41:30.843Z,100809.73
2022-10-14T13:44:00.868Z,100811.13
2022-10-14T13:46:31.594Z,100811.05
2022-10-14T13:49:00.110Z,100809.80
2022-10-14T13:51:37.559Z,100808.34
2022-10-14T13:54:17.165Z,100809.30
2022-10-14T13:57:19.842Z,100808.71
2022-10-14T14:00:11.584Z,100809.85
2022-10-14T14:02:42.749Z,100807.38
2022-10-14T14:05:16.256Z,100809.42
2022-10-14T14:10:38.924Z,100807.73
2022-10-14T14:13:12.021Z,100805.95
2022-10-14T14:15:40.609Z,100809.88
2022-10-14T14:18:24.882Z,100809.34
2022-10-14T14:20:58.153Z,100811.89
2022-10-14T14:23:26.347Z,100812.35
2022-10-14T14:26:17.946Z,100808.21
2022-10-14T14:28:44.988Z,100811.51
2022-10-14T14:31:15.765Z,100810.05
2022-10-14T14:33:44.981Z,100805.58
2022-10-14T14:36:27.290Z,100808.54
2022-10-14T14:39:02.342Z,100804.66
2022-10-14T14:41:30.981Z,100802.19
2022-10-14T14:46:52.092Z,100799.39
2022-10-14T14:49:23.455Z,100799.44
2022-10-14T14:51:51.894Z,100799.86
2022-10-14T14:54:21.052Z,100796.85
2022-10-14T14:56:50.500Z,100799.55
2022-10-14T14:59:18.159Z,100795.83
2022-10-14T15:01:46.000Z,100795.30
2022-10-14T15:04:18.706Z,100797.85
2022-10-14T15:06:58.402Z,100797.45
2022-10-14T15:09:35.640Z,100798.30
2022-10-14T15:12:05.269Z,100799.81
2022-10-14T15:14:45.005Z,100798.98
2022-10-14T15:17:27.771Z,100800.92
2022-10-14T15:19:57.280Z,100801.22
2022-10-14T15:22:33.901Z,100801.46
2022-10-14T15:25:02.812Z,100798.79
2022-10-14T15:27:34.995Z,100794.90
2022-10-14T15:30:21.517Z,100792.09
2022-10-14T15:32:50.043Z,100792.70
2022-10-14T15:35:19.530Z,100795.17
2022-10-14T15:37:47.247Z,100791.79
2022-10-14T15:40:19.168Z,100792.84
2022-10-14T15:42:47.582Z,100787.59
2022-10-14T15:45:15.719Z,100786.75
2022-10-14T15:47:43.479Z,100787.44
2022-10-14T15:50:19.345Z,100787.79
2022-10-14T15:52:54.071Z,100786.26
2022-10-14T15:55:30.021Z,100785.73
2022-10-14T15:57:59.445Z,100790.44
2022-10-14T16:00:27.136Z,100790.51
2022-10-14T16:02:58.683Z,100789.02
2022-10-14T16:05:29.086Z,100785.46
2022-10-14T16:07:57.565Z,100787.15
2022-10-14T16:10:28.137Z,100787.13
2022-10-14T16:12:58.369Z,100785.39
2022-10-14T16:15:33.055Z,100782.95
2022-10-14T16:18:00.917Z,100780.98
2022-10-14T16:20:30.852Z,100780.55
2022-10-14T16:22:58.770Z,100777.55
2022-10-14T16:25:33.727Z,100779.30
2022-10-14T16:28:01.705Z,100777.67
2022-10-14T16:30:29.396Z,100772.64
2022-10-14T16:32:57.100Z,100768.92
2022-10-14T16:35:24.740Z,100767.39
2022-10-14T16:37:53.272Z,100771.79
2022-10-14T16:40:21.329Z,100770.45
2022-10-14T16:42:49.213Z,100767.25
2022-10-14T16:45:17.695Z,100764.77
2022-10-14T16:47:45.472Z,100759.48
2022-10-14T16:50:13.284Z,100755.50
2022-10-14T16:53:03.539Z,100752.70
2022-10-14T16:55:34.523Z,100746.41
2022-10-14T16:58:02.308Z,100745.73
2022-10-14T17:00:29.994Z,100748.83
2022-10-14T17:02:57.690Z,100748.49
2022-10-14T17:05:27.059Z,100747.33
2022-10-14T17:07:54.776Z,100747.22
2022-10-14T17:10:22.573Z,100746.09
2022-10-14T17:12:50.245Z,100749.57
2022-10-14T17:15:18.107Z,100746.05
2022-10-14T17:17:46.406Z,100742.25
2022-10-14T17:20:14.118Z,100741.64
2022-10-14T17:22:43.042Z,100740.57
2022-10-14T17:25:10.705Z,100737.10
2022-10-14T17:27:38.394Z,100737.72
2022-10-14T17:30:06.536Z,100741.92
2022-10-14T17:32:34.749Z,100742.71
2022-10-14T17:35:03.608Z,100740.54
2022-10-14T17:37:31.281Z,100736.60
2022-10-14T17:39:58.893Z,100736.40
2022-10-14T17:42:26.586Z,100736.00
2022-10-14T17:44:56.279Z,100738.63
2022-10-14T17:47:24.095Z,100736.22
2022-10-14T17:49:52.242Z,100732.61
2022-10-14T17:52:19.967Z,100731.48
2022-10-14T17:54:48.190Z,100726.86
2022-10-14T17:57:15.800Z,100725.40
2022-10-14T17:59:43.464Z,100724.52
2022-10-14T18:02:16.564Z,100722.16
2022-10-14T18:04:44.263Z,100717.10
2022-10-14T18:07:12.147Z,100714.13
2022-10-14T18:09:39.818Z,100708.96
2022-10-14T18:12:09.918Z,100704.38
2022-10-14T18:14:38.670Z,100709.11
2022-10-14T18:17:06.348Z,100709.32
2022-10-14T18:19:35.126Z,100709.96
2022-10-14T18:22:03.840Z,100710.45
2022-10-14T18:24:32.412Z,100711.75
2022-10-14T18:27:00.037Z,100712.47
2022-10-14T18:29:27.737Z,100715.23
2022-10-14T18:31:55.440Z,100710.98
2022-10-14T18:34:25.028Z,100713.84
2022-10-14T18:36:52.696Z,100715.55
2022-10-14T18:39:20.648Z,100712.67
2022-10-14T18:41:48.810Z,100710.67
2022-10-14T18:44:16.549Z,100706.10
2022-10-14T18:46:44.207Z,100708.94
2022-10-14T18:49:11.874Z,100709.24
2022-10-14T18:51:40.745Z,100712.71
2022-10-14T18:54:11.329Z,100713.75
2022-10-14T18:56:39.052Z,100715.06
2022-10-14T18:59:18.112Z,100717.34
2022-10-14T19:01:47.389Z,100714.77
2022-10-14T19:04:15.930Z,100716.30
2022-10-14T19:06:48.965Z,100711.09
2022-10-14T19:09:20.964Z,100716.96
2022-10-14T19:11:52.149Z,100715.96
2022-10-14T19:14:21.023Z,100718.89
2022-10-14T19:16:49.874Z,100713.54
2022-10-14T19:19:19.771Z,100706.14
2022-10-14T19:21:51.022Z,100703.02
2022-10-14T19:24:18.751Z,100706.52
2022-10-14T19:26:47.463Z,100705.95
2022-10-14T19:29:15.626Z,100707.58
2022-10-14T19:31:44.152Z,100707.36
2022-10-14T19:34:13.773Z,100701.37
2022-10-14T19:36:41.655Z,100698.05
2022-10-14T19:39:11.675Z,100694.66
2022-10-14T19:41:43.282Z,100690.68
2022-10-14T19:44:12.130Z,100687.83
2022-10-14T19:46:40.416Z,100691.02
2022-10-14T19:49:10.994Z,100686.33
2022-10-14T19:51:38.708Z,100682.40
2022-10-14T19:54:06.355Z,100682.42
2022-10-14T19:56:34.001Z,100685.20
2022-10-14T19:59:01.977Z,100682.59
2022-10-14T20:01:30.705Z,100677.06
2022-10-14T20:04:00.171Z,100677.55
2022-10-14T20:06:31.747Z,100681.71
2022-10-14T20:08:59.770Z,100677.17
2022-10-14T20:11:29.557Z,100678.06
2022-10-14T20:13:57.710Z,100678.45
2022-10-14T20:16:27.071Z,100676.70
2022-10-14T20:18:56.110Z,100678.83
2022-10-14T20:21:24.427Z,100676.02
2022-10-14T20:23:52.082Z,100679.64
2022-10-14T20:26:21.020Z,100682.39
2022-10-14T20:28:50.070Z,100679.54
2022-10-14T20:31:19.508Z,100680.48
2022-10-14T20:33:47.149Z,100679.63
2022-10-14T20:36:17.084Z,100678.09
2022-10-14T20:38:45.519Z,100677.94
2022-10-14T20:41:14.598Z,100679.63
2022-10-14T20:43:43.329Z,100683.48
2022-10-14T20:46:11.494Z,100683.30
2022-10-14T20:48:39.295Z,100690.20
2022-10-14T20:51:08.187Z,100686.66
2022-10-14T20:53:35.974Z,100688.77
2022-10-14T20:56:07.982Z,100686.71
2022-10-14T20:58:35.683Z,100684.75
2022-10-14T21:01:08.902Z,100685.99
2022-10-14T21:03:36.974Z,100677.95
2022-10-14T21:06:05.944Z,100679.65
2022-10-14T21:08:33.642Z,100682.01
2022-10-14T21:11:02.156Z,100680.86
2022-10-14T21:13:30.324Z,100675.57
2022-10-14T21:15:58.006Z,100677.15
2022-10-14T21:18:25.763Z,100675.07
2022-10-14T21:23:26.154Z,100662.52
2022-10-14T21:25:55.632Z,100655.90
2022-10-14T21:28:23.714Z,100653.16
2022-10-14T21:30:51.424Z,100648.08
2022-10-14T21:33:19.033Z,100644.89
2022-10-14T21:35:46.727Z,100641.46
2022-10-14T21:38:14.485Z,100639.54
2022-10-14T21:40:42.171Z,100636.84
2022-10-14T21:43:09.822Z,100636.08
2022-10-14T21:45:37.465Z,100640.31
2022-10-14T21:48:05.292Z,100636.34
2022-10-14T21:50:33.013Z,100639.92
2022-10-14T21:53:00.678Z,100635.89
2022-10-14T21:55:28.294Z,100632.70
2022-10-14T21:57:57.387Z,100631.60
2022-10-14T22:00:25.038Z,100632.36
2022-10-14T22:02:53.847Z,100633.42
2022-10-14T22:05:21.600Z,100628.38
2022-10-14T22:07:49.264Z,100623.60
2022-10-14T22:10:52.377Z,100624.48
2022-10-14T22:13:20.045Z,100624.37
2022-10-14T22:15:47.795Z,100621.30
2022-10-14T22:18:15.400Z,100617.77
2022-10-14T22:20:43.144Z,100616.33
2022-10-14T22:23:10.829Z,100615.63
2022-10-14T22:25:38.557Z,100612.14
2022-10-14T22:28:06.657Z,100609.57
2022-10-14T22:30:35.200Z,100608.23
2022-10-14T22:33:03.049Z,100608.79
2022-10-14T22:35:30.825Z,100607.56
2022-10-14T22:37:58.835Z,100604.55
2022-10-14T22:40:26.493Z,100601.15
2022-10-14T22:42:55.259Z,100600.69
2022-10-14T22:45:22.860Z,100601.63
2022-10-14T22:47:50.511Z,100604.55
2022-10-14T22:50:18.491Z,100606.63
2022-10-14T22:52:46.108Z,100604.12
2022-10-14T22:55:13.777Z,100605.58
2022-10-14T22:57:41.502Z,100605.84
2022-10-14T23:00:09.673Z,100597.98
2022-10-14T23:02:37.352Z,100591.35
2022-10-14T23:05:05.336Z,100590.69
2022-10-14T23:07:33.363Z,100585.75
2022-10-14T23:10:01.093Z,100577.44
2022-10-14T23:12:28.792Z,100573.80
2022-10-14T23:14:56.921Z,100569.00
2022-10-14T23:17:24.549Z,100569.89
2022-10-14T23:19:52.180Z,100571.75
2022-10-14T23:22:19.964Z,100574.59
2022-10-14T23:24:47.735Z,100573.89
2022-10-14T23:27:15.354Z,100570.55
2022-10-14T23:29:42.978Z,100575.39
2022-10-14T23:32:11.157Z,100573.79
2022-10-14T23:34:38.878Z,100572.37
2022-10-14T23:37:06.510Z,100569.64
2022-10-14T23:39:34.162Z,100563.95
2022-10-14T23:42:01.906Z,100562.32
2022-10-14T23:44:29.650Z,100565.64
2022-10-14T23:46:57.280Z,100561.73
2022-10-14T23:49:26.270Z,100558.55
2022-10-14T23:51:55.536Z,100554.65
2022-10-14T23:54:23.655Z,100552.12
2022-10-14T23:56:51.796Z,100545.31
2022-10-14T23:59:19.470Z,100542.36
